Search for airport 
image banner adimage banner adimage banner ad
image banner ad

PA22 - Hermitage

Located in Sharon, United States

ICAO - PA22, IATA -

Data provided by Airmate  

General information

Coordinates: N41°12'5" W80°25'20"
Elevation is 1100 feet MSL.
Magnetic variation is -08° East
View others Airports in Pennsylvania

Operational data

Special qualification required
Current time UTC:
Current local time:
Weather at : KUCP - New Castle Muni ( 20 km )
METAR: KUCP 152056Z AUTO 33008KT 10SM CLR 22/11 A2996 RMK AO2 SLP155 T02220111 56000
View NOTAMs / SUP AIP / TFR affecting this airport [VIEW]
Communications frequencies: [VIEW]

Runways:

RWY identifierQFULength (ft)Width (ft)SurfaceLDA (ft)
18211065OTHER
36211065OTHER

Airport contact information

Address: Sharon United States

Satellite view of PA22